Avi Salvador — EA6682 — position and weather

sailwx.info

Track history (hours):
 
Tides and Currents Weather Stations Pressure Air Temp Water Temp Dewpoint Dewpoint Depression Visibility Wind Speed Wind Dir Waves Ship Positions

Avi Salvador

Last reported at 2018-Jun-25 05:57 UTC. Time now 2018-Jun-25 08:21 UTC.
Position N 41°03' E 001°57'.

Length 22 m.

Type: Fishing. MMSI: 224011150.

Date/timePositionNaut miles runAvg speedWind from/ knotsBaromVisibWave heightAir tempDewpointWater temp
2018-Jun-25 05:57N 41°03' E 001°57'510.9
2018-Jun-25 05:29N 41°07' E 001°52'511.0
2018-Jun-25 05:00N 41°10' E 001°47'3 6.4
2018-Jun-25 04:30N 41°13' E 001°44'0 0.9
2018-Jun-25 04:00N 41°13' E 001°44'  
2018-Jun-22 14:28N 41°13' E 001°44'3 7.2
2018-Jun-22 14:00N 41°11' E 001°48'610.7
2018-Jun-22 13:29N 41°08' E 001°54'510.5
2018-Jun-22 13:00N 41°06' E 002°00'5 0.7
2018-Jun-22 05:36N 41°06' E 001°53'110.9
2018-Jun-22 05:30N 41°07' E 001°52'510.8
2018-Jun-22 05:00N 41°10' E 001°47'3 6.5
2018-Jun-22 04:30N 41°13' E 001°44'0 0.0
2018-Jun-21 14:36N 41°13' E 001°44'0 0.4
2018-Jun-21 14:30N 41°13' E 001°44'4 7.5
2018-Jun-21 14:01N 41°11' E 001°48'510.5
2018-Jun-21 13:30N 41°08' E 001°54'510.2
2018-Jun-21 13:00N 41°05' E 002°00'3 1.0
2018-Jun-21 10:29N 41°03' E 001°58'1 2.4
2018-Jun-21 10:00N 41°03' E 001°60'1 2.5
2018-Jun-21 09:30N 41°04' E 002°01'4 1.2
2018-Jun-21 05:47N 41°05' E 001°56'311.0
2018-Jun-21 05:30N 41°06' E 001°52'511.0
2018-Jun-21 05:00N 41°10' E 001°47'3 6.6
2018-Jun-21 04:30N 41°12' E 001°44'1 1.2
2018-Jun-21 04:00N 41°13' E 001°44'0 0.0
2018-Jun-20 14:49N 41°13' E 001°44'0 0.0
2018-Jun-20 14:30N 41°13' E 001°44'4 8.1
2018-Jun-20 14:00N 41°10' E 001°47'5 9.6
2018-Jun-20 13:30N 41°06' E 001°52'5 9.6
2018-Jun-20 13:00N 41°03' E 001°57'2 0.3
2018-Jun-20 05:46N 41°04' E 001°55'310.9
2018-Jun-20 05:28N 41°07' E 001°52'510.8
2018-Jun-20 05:00N 41°10' E 001°47'3 6.3
2018-Jun-20 04:30N 41°12' E 001°44'1 1.5
2018-Jun-20 04:00N 41°13' E 001°44'0 0.0
2018-Jun-19 14:41N 41°13' E 001°44'0 2.6
2018-Jun-19 14:30N 41°12' E 001°44'4 8.8
2018-Jun-19 14:00N 41°10' E 001°49'5 9.8
2018-Jun-19 13:30N 41°07' E 001°54'2 0.2
2018-Jun-19 05:37N 41°06' E 001°53'111.1
2018-Jun-19 05:30N 41°06' E 001°52'510.9
2018-Jun-19 05:00N 41°10' E 001°47'3 6.5
2018-Jun-19 04:30N 41°12' E 001°44'1 1.3
2018-Jun-19 04:00N 41°13' E 001°44'0 0.0
2018-Jun-18 14:50N 41°13' E 001°44'0 0.1
2018-Jun-18 14:30N 41°13' E 001°44'4 8.7
2018-Jun-18 14:01N 41°10' E 001°48'710.4
2018-Jun-18 13:18N 41°06' E 001°57'2 3.4
2018-Jun-18 12:51N 41°05' E 001°58'0 0.3
2018-Jun-18 12:30N 41°05' E 001°58'1 2.7
2018-Jun-18 12:00N 41°04' E 001°59'1 2.3
2018-Jun-18 11:30N 41°03' E 001°59'5 0.9
2018-Jun-18 05:38N 41°06' E 001°53'110.9
2018-Jun-18 05:30N 41°07' E 001°52'510.5
2018-Jun-18 05:00N 41°10' E 001°47'3 6.4
2018-Jun-18 04:30N 41°13' E 001°44'0 0.6
2018-Jun-18 04:00N 41°13' E 001°44'  
2018-Jun-15 14:33N 41°13' E 001°44'0 0.2
2018-Jun-15 14:30N 41°13' E 001°44'4 7.0
2018-Jun-15 14:00N 41°10' E 001°47'4 8.8
2018-Jun-15 13:30N 41°07' E 001°51'5 9.8
2018-Jun-15 13:00N 41°04' E 001°56'2 1.7
2018-Jun-15 11:47N 41°02' E 001°58'  
Track history (hours):
 
Tides and Currents Weather Stations Pressure Air Temp Water Temp Dewpoint Dewpoint Depression Visibility Wind Speed Wind Dir Waves Ship Positions

Avi Salvador

Last reported at 2018-Jun-25 05:57 UTC. Time now 2018-Jun-25 08:21 UTC.
Position N 41°03' E 001°57'.

Length 22 m.

Type: Fishing. MMSI: 224011150.

Date/timePositionNaut miles runAvg speedWind from/ knotsBaromVisibWave heightAir tempDewpointWater temp
2018-Jun-25 05:57N 41°03' E 001°57'510.9
2018-Jun-25 05:29N 41°07' E 001°52'511.0
2018-Jun-25 05:00N 41°10' E 001°47'3 6.4
2018-Jun-25 04:30N 41°13' E 001°44'0 0.9
2018-Jun-25 04:00N 41°13' E 001°44'  
2018-Jun-22 14:28N 41°13' E 001°44'3 7.2
2018-Jun-22 14:00N 41°11' E 001°48'610.7
2018-Jun-22 13:29N 41°08' E 001°54'510.5
2018-Jun-22 13:00N 41°06' E 002°00'5 0.7
2018-Jun-22 05:36N 41°06' E 001°53'110.9
2018-Jun-22 05:30N 41°07' E 001°52'510.8
2018-Jun-22 05:00N 41°10' E 001°47'3 6.5
2018-Jun-22 04:30N 41°13' E 001°44'0 0.0
2018-Jun-21 14:36N 41°13' E 001°44'0 0.4
2018-Jun-21 14:30N 41°13' E 001°44'4 7.5
2018-Jun-21 14:01N 41°11' E 001°48'510.5
2018-Jun-21 13:30N 41°08' E 001°54'510.2
2018-Jun-21 13:00N 41°05' E 002°00'3 1.0
2018-Jun-21 10:29N 41°03' E 001°58'1 2.4
2018-Jun-21 10:00N 41°03' E 001°60'1 2.5
2018-Jun-21 09:30N 41°04' E 002°01'4 1.2
2018-Jun-21 05:47N 41°05' E 001°56'311.0
2018-Jun-21 05:30N 41°06' E 001°52'511.0
2018-Jun-21 05:00N 41°10' E 001°47'3 6.6
2018-Jun-21 04:30N 41°12' E 001°44'1 1.2
2018-Jun-21 04:00N 41°13' E 001°44'0 0.0
2018-Jun-20 14:49N 41°13' E 001°44'0 0.0
2018-Jun-20 14:30N 41°13' E 001°44'4 8.1
2018-Jun-20 14:00N 41°10' E 001°47'5 9.6
2018-Jun-20 13:30N 41°06' E 001°52'5 9.6
2018-Jun-20 13:00N 41°03' E 001°57'2 0.3
2018-Jun-20 05:46N 41°04' E 001°55'310.9
2018-Jun-20 05:28N 41°07' E 001°52'510.8
2018-Jun-20 05:00N 41°10' E 001°47'3 6.3
2018-Jun-20 04:30N 41°12' E 001°44'1 1.5
2018-Jun-20 04:00N 41°13' E 001°44'0 0.0
2018-Jun-19 14:41N 41°13' E 001°44'0 2.6
2018-Jun-19 14:30N 41°12' E 001°44'4 8.8
2018-Jun-19 14:00N 41°10' E 001°49'5 9.8
2018-Jun-19 13:30N 41°07' E 001°54'2 0.2
2018-Jun-19 05:37N 41°06' E 001°53'111.1
2018-Jun-19 05:30N 41°06' E 001°52'510.9
2018-Jun-19 05:00N 41°10' E 001°47'3 6.5
2018-Jun-19 04:30N 41°12' E 001°44'1 1.3
2018-Jun-19 04:00N 41°13' E 001°44'0 0.0
2018-Jun-18 14:50N 41°13' E 001°44'0 0.1
2018-Jun-18 14:30N 41°13' E 001°44'4 8.7
2018-Jun-18 14:01N 41°10' E 001°48'710.4
2018-Jun-18 13:18N 41°06' E 001°57'2 3.4
2018-Jun-18 12:51N 41°05' E 001°58'0 0.3
2018-Jun-18 12:30N 41°05' E 001°58'1 2.7
2018-Jun-18 12:00N 41°04' E 001°59'1 2.3
2018-Jun-18 11:30N 41°03' E 001°59'5 0.9
2018-Jun-18 05:38N 41°06' E 001°53'110.9
2018-Jun-18 05:30N 41°07' E 001°52'510.5
2018-Jun-18 05:00N 41°10' E 001°47'3 6.4
2018-Jun-18 04:30N 41°13' E 001°44'0 0.6
2018-Jun-18 04:00N 41°13' E 001°44'  
2018-Jun-15 14:33N 41°13' E 001°44'0 0.2
2018-Jun-15 14:30N 41°13' E 001°44'4 7.0
2018-Jun-15 14:00N 41°10' E 001°47'4 8.8
2018-Jun-15 13:30N 41°07' E 001°51'5 9.8
2018-Jun-15 13:00N 41°04' E 001°56'2 1.7
2018-Jun-15 11:47N 41°02' E 001°58'  

Dump ship's entire track history